sensor_id;sensor_type;location;lat;lon;timestamp;P1;durP1;ratioP1;P2;durP2;ratioP2
73170;SDS011;61381;50.118;19.962;2023-07-22T00:03:37;12.07;;;7.20;;
73170;SDS011;61381;50.118;19.962;2023-07-22T00:08:38;9.93;;;7.35;;
73170;SDS011;61381;50.118;19.962;2023-07-22T00:13:39;10.75;;;7.45;;
73170;SDS011;61381;50.118;19.962;2023-07-22T00:18:42;10.48;;;7.57;;
73170;SDS011;61381;50.118;19.962;2023-07-22T00:23:43;14.25;;;9.80;;
73170;SDS011;61381;50.118;19.962;2023-07-22T00:28:44;16.48;;;10.18;;
73170;SDS011;61381;50.118;19.962;2023-07-22T00:33:46;18.10;;;10.63;;
73170;SDS011;61381;50.118;19.962;2023-07-22T00:38:47;17.98;;;10.80;;
73170;SDS011;61381;50.118;19.962;2023-07-22T00:43:48;14.80;;;9.60;;
73170;SDS011;61381;50.118;19.962;2023-07-22T00:48:50;17.17;;;11.50;;
73170;SDS011;61381;50.118;19.962;2023-07-22T00:53:51;14.35;;;10.13;;
73170;SDS011;61381;50.118;19.962;2023-07-22T00:58:52;18.40;;;10.75;;
73170;SDS011;61381;50.118;19.962;2023-07-22T01:03:55;19.17;;;11.15;;
73170;SDS011;61381;50.118;19.962;2023-07-22T01:08:56;19.95;;;11.68;;
73170;SDS011;61381;50.118;19.962;2023-07-22T01:13:57;19.83;;;12.40;;
73170;SDS011;61381;50.118;19.962;2023-07-22T01:18:59;20.60;;;11.75;;
73170;SDS011;61381;50.118;19.962;2023-07-22T01:24:02;19.52;;;12.02;;
73170;SDS011;61381;50.118;19.962;2023-07-22T01:29:04;21.67;;;12.10;;
73170;SDS011;61381;50.118;19.962;2023-07-22T01:34:05;16.88;;;11.48;;
73170;SDS011;61381;50.118;19.962;2023-07-22T01:39:07;21.40;;;13.20;;
73170;SDS011;61381;50.118;19.962;2023-07-22T01:44:08;19.92;;;12.05;;
73170;SDS011;61381;50.118;19.962;2023-07-22T01:49:10;22.20;;;12.77;;
73170;SDS011;61381;50.118;19.962;2023-07-22T01:54:13;26.27;;;13.05;;
73170;SDS011;61381;50.118;19.962;2023-07-22T01:59:14;20.95;;;13.02;;
73170;SDS011;61381;50.118;19.962;2023-07-22T02:04:15;23.73;;;12.98;;
73170;SDS011;61381;50.118;19.962;2023-07-22T02:09:18;20.83;;;13.02;;
73170;SDS011;61381;50.118;19.962;2023-07-22T02:14:19;20.33;;;12.90;;
73170;SDS011;61381;50.118;19.962;2023-07-22T02:19:20;23.45;;;12.88;;
73170;SDS011;61381;50.118;19.962;2023-07-22T02:24:22;28.10;;;13.43;;
73170;SDS011;61381;50.118;19.962;2023-07-22T02:29:23;24.15;;;13.77;;
73170;SDS011;61381;50.118;19.962;2023-07-22T02:34:24;20.25;;;12.18;;
73170;SDS011;61381;50.118;19.962;2023-07-22T02:39:27;20.60;;;12.55;;
73170;SDS011;61381;50.118;19.962;2023-07-22T02:44:28;22.25;;;11.43;;
73170;SDS011;61381;50.118;19.962;2023-07-22T02:49:29;22.55;;;12.43;;
73170;SDS011;61381;50.118;19.962;2023-07-22T02:54:31;23.30;;;12.10;;
73170;SDS011;61381;50.118;19.962;2023-07-22T02:59:32;18.08;;;10.88;;
73170;SDS011;61381;50.118;19.962;2023-07-22T03:04:33;21.85;;;12.68;;
73170;SDS011;61381;50.118;19.962;2023-07-22T03:09:35;25.65;;;13.82;;
73170;SDS011;61381;50.118;19.962;2023-07-22T03:14:36;23.85;;;13.35;;
73170;SDS011;61381;50.118;19.962;2023-07-22T03:19:37;20.48;;;13.10;;
73170;SDS011;61381;50.118;19.962;2023-07-22T03:24:39;21.48;;;11.68;;
73170;SDS011;61381;50.118;19.962;2023-07-22T03:29:41;21.17;;;11.82;;
73170;SDS011;61381;50.118;19.962;2023-07-22T03:34:42;20.92;;;11.68;;
73170;SDS011;61381;50.118;19.962;2023-07-22T03:39:44;21.58;;;11.80;;
73170;SDS011;61381;50.118;19.962;2023-07-22T03:44:45;19.02;;;11.45;;
73170;SDS011;61381;50.118;19.962;2023-07-22T03:49:46;21.58;;;11.98;;
73170;SDS011;61381;50.118;19.962;2023-07-22T03:54:48;19.98;;;11.95;;
73170;SDS011;61381;50.118;19.962;2023-07-22T03:59:49;19.60;;;11.68;;
73170;SDS011;61381;50.118;19.962;2023-07-22T04:04:51;20.25;;;11.40;;
73170;SDS011;61381;50.118;19.962;2023-07-22T04:09:53;19.23;;;12.13;;
73170;SDS011;61381;50.118;19.962;2023-07-22T04:14:54;18.98;;;11.82;;
73170;SDS011;61381;50.118;19.962;2023-07-22T04:19:55;18.50;;;11.95;;
73170;SDS011;61381;50.118;19.962;2023-07-22T04:24:58;17.70;;;10.63;;
73170;SDS011;61381;50.118;19.962;2023-07-22T04:29:59;17.48;;;12.35;;
73170;SDS011;61381;50.118;19.962;2023-07-22T04:35:00;19.38;;;11.40;;
73170;SDS011;61381;50.118;19.962;2023-07-22T04:40:02;17.55;;;10.27;;
73170;SDS011;61381;50.118;19.962;2023-07-22T04:45:04;18.85;;;10.60;;
73170;SDS011;61381;50.118;19.962;2023-07-22T04:50:06;20.58;;;11.00;;
73170;SDS011;61381;50.118;19.962;2023-07-22T04:55:10;22.58;;;11.75;;
73170;SDS011;61381;50.118;19.962;2023-07-22T05:00:11;22.92;;;12.68;;
73170;SDS011;61381;50.118;19.962;2023-07-22T05:05:13;23.90;;;13.57;;
73170;SDS011;61381;50.118;19.962;2023-07-22T05:10:15;24.80;;;13.43;;
73170;SDS011;61381;50.118;19.962;2023-07-22T05:15:16;26.88;;;13.82;;
73170;SDS011;61381;50.118;19.962;2023-07-22T05:20:17;25.33;;;13.63;;
73170;SDS011;61381;50.118;19.962;2023-07-22T05:25:20;23.35;;;12.38;;
73170;SDS011;61381;50.118;19.962;2023-07-22T05:30:21;21.80;;;12.20;;
73170;SDS011;61381;50.118;19.962;2023-07-22T05:35:22;23.77;;;13.50;;
73170;SDS011;61381;50.118;19.962;2023-07-22T05:40:25;17.50;;;11.43;;
73170;SDS011;61381;50.118;19.962;2023-07-22T05:45:25;20.38;;;12.15;;
73170;SDS011;61381;50.118;19.962;2023-07-22T05:50:26;15.10;;;8.20;;
73170;SDS011;61381;50.118;19.962;2023-07-22T05:55:29;22.75;;;13.30;;
73170;SDS011;61381;50.118;19.962;2023-07-22T06:00:30;21.52;;;13.85;;
73170;SDS011;61381;50.118;19.962;2023-07-22T06:05:31;26.25;;;13.82;;
73170;SDS011;61381;50.118;19.962;2023-07-22T06:10:33;21.90;;;12.95;;
73170;SDS011;61381;50.118;19.962;2023-07-22T06:15:34;15.60;;;10.07;;
73170;SDS011;61381;50.118;19.962;2023-07-22T06:20:36;23.80;;;13.82;;
73170;SDS011;61381;50.118;19.962;2023-07-22T06:25:38;21.92;;;12.20;;
73170;SDS011;61381;50.118;19.962;2023-07-22T06:30:39;19.25;;;11.85;;
73170;SDS011;61381;50.118;19.962;2023-07-22T06:35:40;18.48;;;11.70;;
73170;SDS011;61381;50.118;19.962;2023-07-22T06:40:42;16.45;;;10.73;;
73170;SDS011;61381;50.118;19.962;2023-07-22T06:45:43;15.82;;;10.38;;
73170;SDS011;61381;50.118;19.962;2023-07-22T06:50:46;13.07;;;8.70;;
73170;SDS011;61381;50.118;19.962;2023-07-22T06:55:50;15.40;;;9.05;;
73170;SDS011;61381;50.118;19.962;2023-07-22T07:00:52;13.63;;;9.48;;
73170;SDS011;61381;50.118;19.962;2023-07-22T07:05:53;12.15;;;8.68;;
73170;SDS011;61381;50.118;19.962;2023-07-22T07:10:58;11.93;;;8.05;;
73170;SDS011;61381;50.118;19.962;2023-07-22T07:21:21;11.50;;;7.90;;
73170;SDS011;61381;50.118;19.962;2023-07-22T07:26:24;11.45;;;8.15;;
73170;SDS011;61381;50.118;19.962;2023-07-22T07:31:25;11.52;;;8.07;;
73170;SDS011;61381;50.118;19.962;2023-07-22T07:36:26;8.90;;;6.68;;
73170;SDS011;61381;50.118;19.962;2023-07-22T07:41:28;8.30;;;5.55;;
73170;SDS011;61381;50.118;19.962;2023-07-22T07:46:29;5.43;;;4.30;;
73170;SDS011;61381;50.118;19.962;2023-07-22T07:51:31;4.57;;;2.83;;
73170;SDS011;61381;50.118;19.962;2023-07-22T07:56:33;4.72;;;3.58;;
73170;SDS011;61381;50.118;19.962;2023-07-22T08:01:34;5.25;;;3.90;;
73170;SDS011;61381;50.118;19.962;2023-07-22T08:06:35;6.78;;;3.60;;
73170;SDS011;61381;50.118;19.962;2023-07-22T08:11:38;5.43;;;4.30;;
73170;SDS011;61381;50.118;19.962;2023-07-22T08:16:39;6.32;;;4.20;;
73170;SDS011;61381;50.118;19.962;2023-07-22T08:21:40;5.70;;;4.78;;
73170;SDS011;61381;50.118;19.962;2023-07-22T08:26:42;3.72;;;2.85;;
73170;SDS011;61381;50.118;19.962;2023-07-22T08:31:44;2.92;;;2.28;;
73170;SDS011;61381;50.118;19.962;2023-07-22T08:36:45;3.10;;;2.70;;
73170;SDS011;61381;50.118;19.962;2023-07-22T08:41:47;3.92;;;2.90;;
73170;SDS011;61381;50.118;19.962;2023-07-22T08:46:50;2.72;;;2.35;;
73170;SDS011;61381;50.118;19.962;2023-07-22T08:51:58;2.05;;;1.90;;
73170;SDS011;61381;50.118;19.962;2023-07-22T08:57:02;4.00;;;2.03;;
73170;SDS011;61381;50.118;19.962;2023-07-22T09:02:03;5.05;;;2.60;;
73170;SDS011;61381;50.118;19.962;2023-07-22T09:07:05;3.00;;;2.30;;
73170;SDS011;61381;50.118;19.962;2023-07-22T09:12:09;4.00;;;2.22;;
73170;SDS011;61381;50.118;19.962;2023-07-22T09:17:10;2.55;;;1.98;;
73170;SDS011;61381;50.118;19.962;2023-07-22T09:22:11;3.63;;;2.03;;
73170;SDS011;61381;50.118;19.962;2023-07-22T09:27:14;3.58;;;2.15;;
73170;SDS011;61381;50.118;19.962;2023-07-22T09:32:15;2.50;;;2.30;;
73170;SDS011;61381;50.118;19.962;2023-07-22T09:37:16;2.50;;;1.80;;
73170;SDS011;61381;50.118;19.962;2023-07-22T09:42:24;2.15;;;1.95;;
73170;SDS011;61381;50.118;19.962;2023-07-22T09:47:26;3.47;;;2.25;;
73170;SDS011;61381;50.118;19.962;2023-07-22T09:52:27;2.47;;;2.25;;
73170;SDS011;61381;50.118;19.962;2023-07-22T09:57:29;5.18;;;2.72;;
73170;SDS011;61381;50.118;19.962;2023-07-22T10:02:30;3.30;;;2.15;;
73170;SDS011;61381;50.118;19.962;2023-07-22T10:07:33;3.22;;;2.53;;
73170;SDS011;61381;50.118;19.962;2023-07-22T10:12:37;3.42;;;2.30;;
73170;SDS011;61381;50.118;19.962;2023-07-22T10:17:40;2.20;;;2.00;;
73170;SDS011;61381;50.118;19.962;2023-07-22T10:22:42;3.17;;;2.00;;
73170;SDS011;61381;50.118;19.962;2023-07-22T10:27:46;3.10;;;2.03;;
73170;SDS011;61381;50.118;19.962;2023-07-22T10:32:48;2.00;;;1.65;;
73170;SDS011;61381;50.118;19.962;2023-07-22T10:37:50;3.25;;;2.13;;
73170;SDS011;61381;50.118;19.962;2023-07-22T10:42:56;4.05;;;1.50;;
73170;SDS011;61381;50.118;19.962;2023-07-22T10:48:05;2.38;;;1.60;;
73170;SDS011;61381;50.118;19.962;2023-07-22T10:53:09;2.25;;;1.20;;
73170;SDS011;61381;50.118;19.962;2023-07-22T10:58:12;3.63;;;1.60;;
73170;SDS011;61381;50.118;19.962;2023-07-22T11:03:13;1.92;;;1.60;;
73170;SDS011;61381;50.118;19.962;2023-07-22T11:08:14;2.20;;;1.40;;
73170;SDS011;61381;50.118;19.962;2023-07-22T11:13:16;2.00;;;1.63;;
73170;SDS011;61381;50.118;19.962;2023-07-22T11:18:17;2.25;;;1.30;;
73170;SDS011;61381;50.118;19.962;2023-07-22T11:23:18;2.08;;;1.35;;
73170;SDS011;61381;50.118;19.962;2023-07-22T11:28:21;1.50;;;1.30;;
73170;SDS011;61381;50.118;19.962;2023-07-22T11:33:22;2.58;;;2.22;;
73170;SDS011;61381;50.118;19.962;2023-07-22T11:38:23;3.28;;;1.48;;
73170;SDS011;61381;50.118;19.962;2023-07-22T11:43:26;3.15;;;1.60;;
73170;SDS011;61381;50.118;19.962;2023-07-22T11:48:27;3.90;;;1.60;;
73170;SDS011;61381;50.118;19.962;2023-07-22T11:53:28;2.05;;;1.30;;
73170;SDS011;61381;50.118;19.962;2023-07-22T11:58:31;2.65;;;1.83;;
73170;SDS011;61381;50.118;19.962;2023-07-22T12:03:33;3.85;;;1.85;;
73170;SDS011;61381;50.118;19.962;2023-07-22T12:08:35;2.58;;;1.55;;
73170;SDS011;61381;50.118;19.962;2023-07-22T12:13:38;3.22;;;1.73;;
73170;SDS011;61381;50.118;19.962;2023-07-22T12:18:42;2.35;;;1.70;;
73170;SDS011;61381;50.118;19.962;2023-07-22T12:23:45;2.72;;;1.70;;
73170;SDS011;61381;50.118;19.962;2023-07-22T12:28:47;2.65;;;1.80;;
73170;SDS011;61381;50.118;19.962;2023-07-22T12:33:48;2.30;;;1.77;;
73170;SDS011;61381;50.118;19.962;2023-07-22T12:38:49;2.50;;;1.80;;
73170;SDS011;61381;50.118;19.962;2023-07-22T12:43:52;2.83;;;1.70;;
73170;SDS011;61381;50.118;19.962;2023-07-22T12:48:53;2.10;;;1.83;;
73170;SDS011;61381;50.118;19.962;2023-07-22T12:53:54;3.88;;;1.83;;
73170;SDS011;61381;50.118;19.962;2023-07-22T12:58:56;2.80;;;1.98;;
73170;SDS011;61381;50.118;19.962;2023-07-22T13:03:57;2.28;;;1.80;;
73170;SDS011;61381;50.118;19.962;2023-07-22T13:08:58;2.65;;;1.70;;
73170;SDS011;61381;50.118;19.962;2023-07-22T13:14:00;2.55;;;1.90;;
73170;SDS011;61381;50.118;19.962;2023-07-22T13:19:01;2.15;;;1.90;;
73170;SDS011;61381;50.118;19.962;2023-07-22T13:24:03;1.90;;;1.63;;
73170;SDS011;61381;50.118;19.962;2023-07-22T13:29:05;2.10;;;1.55;;
73170;SDS011;61381;50.118;19.962;2023-07-22T13:34:06;2.78;;;1.75;;
73170;SDS011;61381;50.118;19.962;2023-07-22T13:39:07;2.13;;;1.85;;
73170;SDS011;61381;50.118;19.962;2023-07-22T13:44:10;2.30;;;1.60;;
73170;SDS011;61381;50.118;19.962;2023-07-22T13:49:11;2.15;;;1.45;;
73170;SDS011;61381;50.118;19.962;2023-07-22T13:54:12;1.75;;;1.52;;
73170;SDS011;61381;50.118;19.962;2023-07-22T13:59:14;2.60;;;1.23;;
73170;SDS011;61381;50.118;19.962;2023-07-22T14:04:15;2.67;;;1.58;;
73170;SDS011;61381;50.118;19.962;2023-07-22T14:09:16;1.80;;;1.40;;
73170;SDS011;61381;50.118;19.962;2023-07-22T14:14:18;2.30;;;1.65;;
73170;SDS011;61381;50.118;19.962;2023-07-22T14:19:19;2.03;;;1.40;;
73170;SDS011;61381;50.118;19.962;2023-07-22T14:24:20;3.10;;;1.92;;
73170;SDS011;61381;50.118;19.962;2023-07-22T14:29:23;2.55;;;1.75;;
73170;SDS011;61381;50.118;19.962;2023-07-22T14:34:24;2.42;;;1.58;;
73170;SDS011;61381;50.118;19.962;2023-07-22T14:39:25;2.95;;;2.28;;
73170;SDS011;61381;50.118;19.962;2023-07-22T14:44:27;2.33;;;1.65;;
73170;SDS011;61381;50.118;19.962;2023-07-22T14:49:29;2.25;;;1.77;;
73170;SDS011;61381;50.118;19.962;2023-07-22T14:54:31;2.35;;;1.88;;
73170;SDS011;61381;50.118;19.962;2023-07-22T14:59:33;2.75;;;1.75;;
73170;SDS011;61381;50.118;19.962;2023-07-22T15:04:34;2.15;;;1.90;;
73170;SDS011;61381;50.118;19.962;2023-07-22T15:09:35;1.80;;;1.60;;
73170;SDS011;61381;50.118;19.962;2023-07-22T15:14:38;2.40;;;1.73;;
73170;SDS011;61381;50.118;19.962;2023-07-22T15:19:39;1.60;;;1.42;;
73170;SDS011;61381;50.118;19.962;2023-07-22T15:24:40;2.90;;;2.10;;
73170;SDS011;61381;50.118;19.962;2023-07-22T15:29:42;2.85;;;2.17;;
73170;SDS011;61381;50.118;19.962;2023-07-22T15:34:43;3.78;;;2.10;;
73170;SDS011;61381;50.118;19.962;2023-07-22T15:39:44;3.58;;;2.33;;
73170;SDS011;61381;50.118;19.962;2023-07-22T15:44:46;3.28;;;1.92;;
73170;SDS011;61381;50.118;19.962;2023-07-22T15:49:47;2.70;;;2.22;;
73170;SDS011;61381;50.118;19.962;2023-07-22T15:54:49;3.17;;;2.30;;
73170;SDS011;61381;50.118;19.962;2023-07-22T15:59:51;2.58;;;1.85;;
73170;SDS011;61381;50.118;19.962;2023-07-22T16:04:52;4.10;;;2.50;;
73170;SDS011;61381;50.118;19.962;2023-07-22T16:09:53;3.75;;;2.00;;
73170;SDS011;61381;50.118;19.962;2023-07-22T16:14:55;4.90;;;2.15;;
73170;SDS011;61381;50.118;19.962;2023-07-22T16:19:56;3.00;;;2.40;;
73170;SDS011;61381;50.118;19.962;2023-07-22T16:24:57;2.70;;;2.17;;
73170;SDS011;61381;50.118;19.962;2023-07-22T16:30:00;3.63;;;2.17;;
73170;SDS011;61381;50.118;19.962;2023-07-22T16:35:01;3.83;;;2.63;;
73170;SDS011;61381;50.118;19.962;2023-07-22T16:40:02;5.22;;;2.40;;
73170;SDS011;61381;50.118;19.962;2023-07-22T16:45:05;4.32;;;2.38;;
73170;SDS011;61381;50.118;19.962;2023-07-22T16:50:07;3.22;;;2.30;;
73170;SDS011;61381;50.118;19.962;2023-07-22T16:55:09;5.05;;;2.58;;
73170;SDS011;61381;50.118;19.962;2023-07-22T17:00:11;4.40;;;2.80;;
73170;SDS011;61381;50.118;19.962;2023-07-22T17:05:13;4.72;;;2.42;;
73170;SDS011;61381;50.118;19.962;2023-07-22T17:10:14;3.35;;;2.47;;
73170;SDS011;61381;50.118;19.962;2023-07-22T17:15:16;4.38;;;2.50;;
73170;SDS011;61381;50.118;19.962;2023-07-22T17:20:17;3.22;;;2.60;;
73170;SDS011;61381;50.118;19.962;2023-07-22T17:25:18;3.50;;;2.75;;
73170;SDS011;61381;50.118;19.962;2023-07-22T17:30:21;3.75;;;3.10;;
73170;SDS011;61381;50.118;19.962;2023-07-22T17:35:22;3.83;;;2.80;;
73170;SDS011;61381;50.118;19.962;2023-07-22T17:40:23;3.42;;;2.70;;
73170;SDS011;61381;50.118;19.962;2023-07-22T17:45:25;3.80;;;2.60;;
73170;SDS011;61381;50.118;19.962;2023-07-22T17:50:26;4.43;;;2.88;;
73170;SDS011;61381;50.118;19.962;2023-07-22T17:55:28;4.82;;;3.28;;
73170;SDS011;61381;50.118;19.962;2023-07-22T18:00:30;9.50;;;4.47;;
73170;SDS011;61381;50.118;19.962;2023-07-22T18:05:31;8.05;;;4.70;;
73170;SDS011;61381;50.118;19.962;2023-07-22T18:10:32;9.57;;;4.40;;
73170;SDS011;61381;50.118;19.962;2023-07-22T18:15:34;9.30;;;4.53;;
73170;SDS011;61381;50.118;19.962;2023-07-22T18:20:35;10.23;;;5.38;;
73170;SDS011;61381;50.118;19.962;2023-07-22T18:25:36;13.80;;;6.75;;
73170;SDS011;61381;50.118;19.962;2023-07-22T18:30:41;14.98;;;9.65;;
73170;SDS011;61381;50.118;19.962;2023-07-22T18:35:45;23.13;;;11.52;;
73170;SDS011;61381;50.118;19.962;2023-07-22T18:40:46;139.57;;;47.70;;
73170;SDS011;61381;50.118;19.962;2023-07-22T18:45:49;33.90;;;17.40;;
73170;SDS011;61381;50.118;19.962;2023-07-22T18:50:53;41.22;;;18.05;;
73170;SDS011;61381;50.118;19.962;2023-07-22T18:55:55;13.45;;;8.25;;
73170;SDS011;61381;50.118;19.962;2023-07-22T19:00:57;12.02;;;6.78;;
73170;SDS011;61381;50.118;19.962;2023-07-22T19:05:58;46.72;;;18.90;;
73170;SDS011;61381;50.118;19.962;2023-07-22T19:10:59;63.05;;;24.70;;
73170;SDS011;61381;50.118;19.962;2023-07-22T19:16:01;40.08;;;18.00;;
73170;SDS011;61381;50.118;19.962;2023-07-22T19:21:02;27.33;;;14.07;;
73170;SDS011;61381;50.118;19.962;2023-07-22T19:26:03;13.10;;;7.30;;
73170;SDS011;61381;50.118;19.962;2023-07-22T19:31:06;14.55;;;8.35;;
73170;SDS011;61381;50.118;19.962;2023-07-22T19:36:07;32.22;;;14.70;;
73170;SDS011;61381;50.118;19.962;2023-07-22T19:41:10;23.15;;;11.20;;
73170;SDS011;61381;50.118;19.962;2023-07-22T19:46:14;27.98;;;12.40;;
73170;SDS011;61381;50.118;19.962;2023-07-22T19:51:16;16.55;;;8.52;;
73170;SDS011;61381;50.118;19.962;2023-07-22T19:56:17;21.70;;;9.38;;
73170;SDS011;61381;50.118;19.962;2023-07-22T20:01:19;34.40;;;14.13;;
73170;SDS011;61381;50.118;19.962;2023-07-22T20:06:20;20.42;;;10.15;;
73170;SDS011;61381;50.118;19.962;2023-07-22T20:11:21;17.58;;;8.68;;
73170;SDS011;61381;50.118;19.962;2023-07-22T20:16:23;15.95;;;9.10;;
73170;SDS011;61381;50.118;19.962;2023-07-22T20:21:24;21.73;;;11.23;;
73170;SDS011;61381;50.118;19.962;2023-07-22T20:26:25;19.85;;;9.60;;
73170;SDS011;61381;50.118;19.962;2023-07-22T20:31:28;12.70;;;8.05;;
73170;SDS011;61381;50.118;19.962;2023-07-22T20:36:29;12.52;;;7.18;;
73170;SDS011;61381;50.118;19.962;2023-07-22T20:41:30;11.95;;;7.50;;
73170;SDS011;61381;50.118;19.962;2023-07-22T20:46:32;13.75;;;8.23;;
73170;SDS011;61381;50.118;19.962;2023-07-22T20:51:33;13.73;;;7.65;;
73170;SDS011;61381;50.118;19.962;2023-07-22T20:56:34;12.75;;;7.38;;
73170;SDS011;61381;50.118;19.962;2023-07-22T21:01:36;12.45;;;7.43;;
73170;SDS011;61381;50.118;19.962;2023-07-22T21:06:37;13.73;;;7.55;;
73170;SDS011;61381;50.118;19.962;2023-07-22T21:11:38;10.43;;;6.65;;
73170;SDS011;61381;50.118;19.962;2023-07-22T21:16:41;10.30;;;7.22;;
73170;SDS011;61381;50.118;19.962;2023-07-22T21:21:43;16.67;;;8.35;;
73170;SDS011;61381;50.118;19.962;2023-07-22T21:26:44;14.68;;;7.47;;
73170;SDS011;61381;50.118;19.962;2023-07-22T21:31:47;13.23;;;8.48;;
73170;SDS011;61381;50.118;19.962;2023-07-22T21:36:48;15.93;;;8.20;;
73170;SDS011;61381;50.118;19.962;2023-07-22T21:41:49;11.77;;;8.25;;
73170;SDS011;61381;50.118;19.962;2023-07-22T21:46:51;11.63;;;7.80;;
73170;SDS011;61381;50.118;19.962;2023-07-22T21:51:53;12.40;;;8.45;;
73170;SDS011;61381;50.118;19.962;2023-07-22T21:56:54;11.60;;;7.85;;
73170;SDS011;61381;50.118;19.962;2023-07-22T22:01:57;12.75;;;8.07;;
73170;SDS011;61381;50.118;19.962;2023-07-22T22:06:58;11.77;;;8.73;;
73170;SDS011;61381;50.118;19.962;2023-07-22T22:11:58;15.43;;;9.18;;
73170;SDS011;61381;50.118;19.962;2023-07-22T22:17:01;13.65;;;8.82;;
73170;SDS011;61381;50.118;19.962;2023-07-22T22:22:02;13.15;;;8.57;;
73170;SDS011;61381;50.118;19.962;2023-07-22T22:27:03;12.73;;;7.70;;
73170;SDS011;61381;50.118;19.962;2023-07-22T22:32:06;14.10;;;8.57;;
73170;SDS011;61381;50.118;19.962;2023-07-22T22:37:07;12.75;;;7.50;;
73170;SDS011;61381;50.118;19.962;2023-07-22T22:42:08;13.80;;;8.15;;
73170;SDS011;61381;50.118;19.962;2023-07-22T22:47:11;12.55;;;8.00;;
73170;SDS011;61381;50.118;19.962;2023-07-22T22:52:12;10.63;;;7.80;;
73170;SDS011;61381;50.118;19.962;2023-07-22T22:57:13;11.93;;;7.63;;
73170;SDS011;61381;50.118;19.962;2023-07-22T23:02:15;11.65;;;6.97;;
73170;SDS011;61381;50.118;19.962;2023-07-22T23:07:16;12.93;;;7.47;;
73170;SDS011;61381;50.118;19.962;2023-07-22T23:12:17;11.55;;;7.55;;
73170;SDS011;61381;50.118;19.962;2023-07-22T23:17:19;16.20;;;8.57;;
73170;SDS011;61381;50.118;19.962;2023-07-22T23:22:20;12.93;;;7.90;;
73170;SDS011;61381;50.118;19.962;2023-07-22T23:27:21;12.02;;;7.40;;
73170;SDS011;61381;50.118;19.962;2023-07-22T23:32:24;13.93;;;7.93;;
73170;SDS011;61381;50.118;19.962;2023-07-22T23:37:25;12.75;;;7.88;;
73170;SDS011;61381;50.118;19.962;2023-07-22T23:42:26;12.32;;;6.82;;
73170;SDS011;61381;50.118;19.962;2023-07-22T23:47:28;10.07;;;6.72;;
73170;SDS011;61381;50.118;19.962;2023-07-22T23:52:29;11.98;;;7.82;;
73170;SDS011;61381;50.118;19.962;2023-07-22T23:57:30;11.55;;;7.93;;
